• Join FlightAware (Why Join?)
  • Login
  • US Flag 
02:55AM EDT


 

Airport Tracker/Info


-or-


 

Live Flight TrackerFlight Track Log ✈ CPZ5750 ✈ 11-Jul-2013 ✈ KALB - KMSP

Flight Track Log - Related Links

Times and Time Zones

All times are in EDT time to prevent confusion due to time zone crossing. See the CPZ5750 flight status page for this flight to view local times or setup timezone preferences in your user account.

Time Position Orientation Groundspeed Altitude Reporting Facility
EDT Latitude Longitude Course Direction KTS MPH feet Rate Location/Type
08:29PM 42.8125 -73.8553 321° Northwest 210 242 3,100  Level Boston Center
08:30PM 42.8556 -73.9214 312° West 243 280 5,500 2,700 Climbing Boston Center
08:31PM 42.9294 -74.0139 318° Northwest 268 308 9,500 2,400 Climbing Boston Center
08:32PM 42.9928 -74.0892 319° Northwest 291 335 11,200 1,920 Climbing Boston Center
08:33PM 43.0625 -74.1736 319° Northwest 322 371 13,400 2,280 Climbing Boston Center
08:34PM 43.1361 -74.2667 317° Northwest 352 405 15,800 2,100 Climbing Boston Center
08:35PM 43.1758 -74.3875 294° West 352 405 17,700 1,980 Climbing Boston Center
08:36PM 43.1736 -74.5128 269° West 352 405 19,800 1,980 Climbing Boston Center
08:37PM 43.1731 -74.6522 270° West 362 417 21,700 1,800 Climbing Boston Center
08:38PM 43.1744 -74.7947 271° West 367 422 23,500 1,620 Climbing Boston Center
08:39PM 43.1733 -74.9397 269° West 372 428 25,000 1,440 Climbing Boston Center
08:40PM 43.1717 -75.0992 269° West 378 435 26,400 1,200 Climbing Boston Center
08:41PM 43.1694 -75.2814 269° West 390 449 27,700 1,200 Climbing Boston Center
08:42PM 43.1697 -75.4350 270° West 402 463 29,100 1,560 Climbing Boston Center
08:43PM 43.1681 -75.5775 269° West 397 457 30,900 1,320 Climbing Boston Center
08:44PM 43.1681 -75.7197 270° West 392 451 31,800 900 Climbing Boston Center
08:45PM 43.1661 -75.8619 269° West 387 445 32,700 840 Climbing Boston Center
08:46PM 43.1636 -76.0072 269° West 382 440 33,500 600 Climbing Boston Center
08:47PM 43.1614 -76.1467 269° West 382 440 34,000 180 Climbing Boston Center
08:49PM 43.1467 -76.3828 265° West 388 447 34,000  Level Cleveland Center
08:50PM 43.1353 -76.5286 264° West 388 447 34,000  Level Cleveland Center
08:51PM 43.1217 -76.6747 263° West 388 447 34,000  Level Cleveland Center
08:52PM 43.1061 -76.8378 263° West 388 447 34,000  Level Cleveland Center
08:53PM 43.1006 -76.9861 267° West 388 447 34,000  Level Cleveland Center
08:54PM 43.1281 -77.1381 284° West 388 447 34,000  Level Cleveland Center
08:55PM 43.1553 -77.2875 284° West 400 460 34,000  Level Cleveland Center
08:56PM 43.1844 -77.4397 285° West 412 474 34,000  Level Cleveland Center
08:57PM 43.2114 -77.5922 284° West 412 474 34,000  Level Cleveland Center
08:58PM 43.2361 -77.7450 283° West 412 474 34,000  Level Cleveland Center
08:59PM 43.2628 -77.8978 284° West 412 474 34,000  Level Cleveland Center
09:00PM 43.2911 -78.0533 284° West 417 480 34,000  Level Cleveland Center
09:01PM 43.3153 -78.2094 282° West 417 480 34,000  Level Cleveland Center
09:02PM 43.3433 -78.3653 284° West 417 480 34,000  Level Cleveland Center
09:03PM 43.3692 -78.5214 283° West 417 480 34,000  Level Cleveland Center
09:04PM 43.3947 -78.6778 283° West 423 487 34,000  Level Cleveland Center
09:05PM 43.4244 -78.8339 285° West 423 487 34,000  Level Cleveland Center
09:06PM 43.4500 -79.0167 281° West 430 495 34,000  Level Toronto Center
09:07PM 43.4667 -79.1667 279° West 420 483 34,000  Level Toronto Center
09:08PM 43.5000 -79.3333 285° West 430 495 34,000  Level Toronto Center
09:09PM 43.5167 -79.5000 278° West 430 495 34,000  Level Toronto Center
09:10PM 43.5500 -79.6500 287° West 440 506 34,000  Level Toronto Center
09:11PM 43.5667 -79.8167 278° West 440 506 34,000  Level Toronto Center
09:12PM 43.6000 -80.0000 284° West 440 506 34,000  Level Toronto Center
09:13PM 43.6167 -80.1667 278° West 440 506 34,000  Level Toronto Center
09:14PM 43.6500 -80.3167 287° West 440 506 34,000  Level Toronto Center
09:15PM 43.6833 -80.5167 283° West 450 518 34,000  Level Toronto Center
09:16PM 43.7000 -80.6667 279° West 450 518 34,000  Level Toronto Center
09:17PM 43.7167 -80.8333 278° West 450 518 34,000  Level Toronto Center
09:18PM 43.7333 -81.0000 278° West 450 518 34,000  Level Toronto Center
09:19PM 43.7667 -81.1833 284° West 450 518 34,000  Level Toronto Center
09:20PM 43.8000 -81.3500 286° West 460 529 34,000  Level Toronto Center
09:21PM 43.8167 -81.5333 277° West 460 529 34,000  Level Toronto Center
09:22PM 43.8500 -81.7167 284° West 460 529 34,000  Level Toronto Center
09:23PM 43.8667 -81.8833 278° West 460 529 34,000  Level Toronto Center
09:24PM 43.8833 -82.0667 277° West 460 529 34,000  Level Toronto Center
09:25PM 43.9167 -82.2333 286° West 460 529 34,000  Level Toronto Center
09:26PM 43.9333 -82.4167 277° West 460 529 34,000  Level Toronto Center
09:27PM 43.9667 -82.5667 287° West 460 529 34,000  Level Toronto Center
09:28PM 43.9878 -82.6689 286° West 460 529 34,000  Level Minneapolis Center
09:29PM 44.0092 -82.8444 280° West 462 532 34,000  Level Minneapolis Center
09:30PM 44.0317 -83.0175 280° West 459 528 34,000  Level Minneapolis Center
09:31PM 44.0631 -83.2658 280° West 464 534 34,000  Level Minneapolis Center
09:32PM 44.0825 -83.4431 279° West 465 535 34,000  Level Minneapolis Center
09:33PM 44.1036 -83.6214 279° West 467 537 34,000  Level Minneapolis Center
09:34PM 44.1250 -83.8011 279° West 469 540 34,000  Level Minneapolis Center
09:35PM 44.1422 -83.9803 278° West 469 540 34,000  Level Minneapolis Center
09:36PM 44.1644 -84.1578 280° West 467 537 34,000  Level Minneapolis Center
09:38PM 44.1878 -84.3694 279° West 463 533 34,000  Level Minneapolis Center
09:39PM 44.2086 -84.5456 279° West 462 532 34,000  Level Minneapolis Center
09:40PM 44.2275 -84.7217 279° West 462 532 34,000  Level Minneapolis Center
09:41PM 44.2467 -84.8981 279° West 460 529 34,000  Level Minneapolis Center
09:42PM 44.2658 -85.0747 279° West 461 531 34,000  Level Minneapolis Center
09:43PM 44.2844 -85.2492 279° West 459 528 34,000  Level Minneapolis Center
09:44PM 44.3033 -85.4256 279° West 458 527 34,000  Level Minneapolis Center
09:45PM 44.3253 -85.6372 278° West 458 527 34,000  Level Minneapolis Center
09:46PM 44.3433 -85.8147 278° West 459 528 34,000  Level Minneapolis Center
09:47PM 44.3597 -85.9892 278° West 454 522 34,000  Level Minneapolis Center
09:48PM 44.3769 -86.1650 278° West 453 521 34,000  Level Minneapolis Center
09:49PM 44.3936 -86.3392 278° West 450 518 34,000  Level Minneapolis Center
09:50PM 44.4103 -86.5150 278° West 453 521 34,000  Level Minneapolis Center
09:51PM 44.4264 -86.6922 277° West 456 525 34,000  Level Minneapolis Center
09:52PM 44.4428 -86.8694 277° West 458 527 34,000  Level Minneapolis Center
09:53PM 44.4586 -87.0450 277° West 456 525 34,000  Level Minneapolis Center
09:54PM 44.4778 -87.2553 277° West 454 522 34,000  Level Minneapolis Center
09:55PM 44.4928 -87.4303 277° West 452 520 34,000  Level Minneapolis Center
09:56PM 44.5086 -87.6067 277° West 456 525 34,000  Level Minneapolis Center
09:57PM 44.5219 -87.7825 276° West 455 524 34,000  Level Minneapolis Center
09:58PM 44.5356 -87.9542 276° West 449 517 34,000  Level Minneapolis Center
09:59PM 44.5497 -88.1278 277° West 449 517 34,000  Level Minneapolis Center
10:00PM 44.5714 -88.3286 279° West 449 517 34,000  Level Minneapolis Center
10:01PM 44.5906 -88.4986 279° West 445 512 34,000  Level Minneapolis Center
10:02PM 44.6100 -88.6708 279° West 446 513 34,000  Level Minneapolis Center
10:03PM 44.6292 -88.8406 279° West 443 510 34,000  Level Minneapolis Center
10:04PM 44.6486 -89.0092 279° West 441 507 34,000  Level Minneapolis Center
10:05PM 44.6678 -89.1806 279° West 443 510 34,000  Level Minneapolis Center
10:06PM 44.6892 -89.3772 279° West 441 507 34,000  Level Minneapolis Center
10:07PM 44.7072 -89.5478 279° West 442 509 34,000  Level Minneapolis Center
10:08PM 44.7258 -89.7189 279° West 443 510 34,000 -240 Level Minneapolis Center
10:09PM 44.7447 -89.8919 279° West 448 516 33,600 -1,020 Descending Minneapolis Center
10:10PM 44.7614 -90.0639 278° West 445 512 32,000 -840 Descending Minneapolis Center
10:11PM 44.7833 -90.2344 280° West 444 511 32,000  Level Minneapolis Center
10:12PM 44.8061 -90.4047 281° West 444 511 32,000 -840 Level Minneapolis Center
10:14PM 44.8292 -90.5747 281° West 446 513 30,400 -1,680 Descending Minneapolis Center
10:15PM 44.8522 -90.7486 281° West 450 518 28,700 -2,040 Descending Minneapolis Center
10:16PM 44.8814 -90.9575 281° West 456 525 26,300 -2,220 Descending Minneapolis Center
10:17PM 44.9025 -91.1258 280° West 446 513 24,200 -2,100 Descending Minneapolis Center
10:18PM 44.9236 -91.2906 280° West 434 499 22,100 -1,980 Descending Minneapolis Center
10:19PM 44.9433 -91.4478 280° West 419 482 20,200 -1,680 Descending Minneapolis Center
10:20PM 44.9636 -91.6028 281° West 408 470 18,400 -1,740 Descending Minneapolis Center
10:21PM 44.9867 -91.7828 280° West 394 453 16,400 -2,040 Descending Minneapolis Center
10:22PM 45.0094 -91.9606 280° West 383 441 14,200 -1,980 Descending Minneapolis Center
10:23PM 45.0264 -92.1033 280° West 372 428 12,400 -1,560 Descending Minneapolis Center
10:24PM 45.0403 -92.2153 280° West 364 419 11,100 -660 Descending Minneapolis Center
10:25PM 45.0350 -92.3825 268° West 364 419 11,000 -60 Descending Minneapolis Center
10:26PM 45.0083 -92.5494 257° West 364 419 11,000  Level Minneapolis Center
10:27PM 44.9853 -92.6894 257° West 367 422 11,000  Level Minneapolis Center
10:28PM 44.9633 -92.8269 257° West 362 417 11,000 -300 Level Minneapolis Center
10:29PM 44.9422 -92.9567 257° West 342 394 10,500 -1,080 Descending Minneapolis Center
10:30PM 44.9356 -93.0858 266° West 285 328 8,900 -1,800 Descending Minneapolis Center
10:31PM 44.9744 -93.1781 301° West 278 320 6,900 -1,860 Descending Minneapolis Center
10:32PM 45.0169 -93.2683 304° West 277 319 5,200 -1,380 Descending Minneapolis Center
10:33PM 45.0303 -93.3528 283° West 239 275 4,100 -1,080 Descending Minneapolis Center
10:34PM 44.9797 -93.3908 208° Southwest 206 237 3,000 -1,140 Descending Minneapolis Center